sensor_id;sensor_type;location;lat;lon;timestamp;temperature;humidity
44537;DHT22;30245;51.966;6.292;2023-12-20T00:00:17;12.90;66.30
44537;DHT22;30245;51.966;6.292;2023-12-20T00:02:43;12.90;66.30
44537;DHT22;30245;51.966;6.292;2023-12-20T00:05:15;12.80;66.20
44537;DHT22;30245;51.966;6.292;2023-12-20T00:07:40;12.80;66.20
44537;DHT22;30245;51.966;6.292;2023-12-20T00:10:06;12.80;66.20
44537;DHT22;30245;51.966;6.292;2023-12-20T00:12:32;12.70;66.20
44537;DHT22;30245;51.966;6.292;2023-12-20T00:14:58;12.60;66.20
44537;DHT22;30245;51.966;6.292;2023-12-20T00:17:23;12.60;66.10
44537;DHT22;30245;51.966;6.292;2023-12-20T00:19:49;12.60;66.20
44537;DHT22;30245;51.966;6.292;2023-12-20T00:22:14;12.60;66.30
44537;DHT22;30245;51.966;6.292;2023-12-20T00:24:40;12.50;66.30
44537;DHT22;30245;51.966;6.292;2023-12-20T00:27:05;12.40;66.30
44537;DHT22;30245;51.966;6.292;2023-12-20T00:29:31;12.30;66.30
44537;DHT22;30245;51.966;6.292;2023-12-20T00:31:57;12.30;66.60
44537;DHT22;30245;51.966;6.292;2023-12-20T00:34:22;12.20;66.70
44537;DHT22;30245;51.966;6.292;2023-12-20T00:36:48;12.10;66.70
44537;DHT22;30245;51.966;6.292;2023-12-20T00:39:13;12.10;66.90
44537;DHT22;30245;51.966;6.292;2023-12-20T00:41:39;12.10;66.80
44537;DHT22;30245;51.966;6.292;2023-12-20T00:44:05;12.10;66.70
44537;DHT22;30245;51.966;6.292;2023-12-20T00:46:30;12.20;66.80
44537;DHT22;30245;51.966;6.292;2023-12-20T00:48:56;12.10;66.60
44537;DHT22;30245;51.966;6.292;2023-12-20T00:51:22;12.20;66.60
44537;DHT22;30245;51.966;6.292;2023-12-20T00:53:50;12.20;66.50
44537;DHT22;30245;51.966;6.292;2023-12-20T00:56:15;12.10;66.40
44537;DHT22;30245;51.966;6.292;2023-12-20T00:58:41;12.10;66.60
44537;DHT22;30245;51.966;6.292;2023-12-20T01:01:06;12.00;66.70
44537;DHT22;30245;51.966;6.292;2023-12-20T01:03:32;11.90;67.00
44537;DHT22;30245;51.966;6.292;2023-12-20T01:05:57;11.90;67.00
44537;DHT22;30245;51.966;6.292;2023-12-20T01:08:23;11.90;66.90
44537;DHT22;30245;51.966;6.292;2023-12-20T01:10:49;11.90;66.90
44537;DHT22;30245;51.966;6.292;2023-12-20T01:13:14;11.90;66.90
44537;DHT22;30245;51.966;6.292;2023-12-20T01:15:40;11.90;66.90
44537;DHT22;30245;51.966;6.292;2023-12-20T01:18:05;11.90;66.70
44537;DHT22;30245;51.966;6.292;2023-12-20T01:20:31;11.90;66.80
44537;DHT22;30245;51.966;6.292;2023-12-20T01:22:57;11.80;66.70
44537;DHT22;30245;51.966;6.292;2023-12-20T01:25:22;11.80;67.50
44537;DHT22;30245;51.966;6.292;2023-12-20T01:27:48;11.70;67.00
44537;DHT22;30245;51.966;6.292;2023-12-20T01:30:14;11.80;66.90
44537;DHT22;30245;51.966;6.292;2023-12-20T01:32:40;11.70;66.90
44537;DHT22;30245;51.966;6.292;2023-12-20T01:35:05;11.70;66.90
44537;DHT22;30245;51.966;6.292;2023-12-20T01:37:31;11.70;66.90
44537;DHT22;30245;51.966;6.292;2023-12-20T01:39:57;11.70;67.50
44537;DHT22;30245;51.966;6.292;2023-12-20T01:42:24;11.70;67.00
44537;DHT22;30245;51.966;6.292;2023-12-20T01:44:49;11.60;66.90
44537;DHT22;30245;51.966;6.292;2023-12-20T01:47:15;11.60;66.90
44537;DHT22;30245;51.966;6.292;2023-12-20T01:49:40;11.60;66.80
44537;DHT22;30245;51.966;6.292;2023-12-20T01:52:07;11.60;67.00
44537;DHT22;30245;51.966;6.292;2023-12-20T01:54:33;11.60;66.80
44537;DHT22;30245;51.966;6.292;2023-12-20T01:56:59;11.60;66.70
44537;DHT22;30245;51.966;6.292;2023-12-20T01:59:26;11.60;67.00
44537;DHT22;30245;51.966;6.292;2023-12-20T02:01:51;11.60;66.90
44537;DHT22;30245;51.966;6.292;2023-12-20T02:04:17;11.60;66.80
44537;DHT22;30245;51.966;6.292;2023-12-20T02:06:43;11.60;66.90
44537;DHT22;30245;51.966;6.292;2023-12-20T02:09:11;11.60;66.80
44537;DHT22;30245;51.966;6.292;2023-12-20T02:11:38;11.60;66.90
44537;DHT22;30245;51.966;6.292;2023-12-20T02:14:03;11.60;66.90
44537;DHT22;30245;51.966;6.292;2023-12-20T02:16:29;11.60;66.90
44537;DHT22;30245;51.966;6.292;2023-12-20T02:18:54;11.60;66.90
44537;DHT22;30245;51.966;6.292;2023-12-20T02:21:25;11.60;66.80
44537;DHT22;30245;51.966;6.292;2023-12-20T02:23:51;11.60;66.80
44537;DHT22;30245;51.966;6.292;2023-12-20T02:26:16;11.70;66.60
44537;DHT22;30245;51.966;6.292;2023-12-20T02:28:43;11.60;66.50
44537;DHT22;30245;51.966;6.292;2023-12-20T02:31:09;11.60;66.50
44537;DHT22;30245;51.966;6.292;2023-12-20T02:33:35;11.60;66.60
44537;DHT22;30245;51.966;6.292;2023-12-20T02:36:00;11.60;66.50
44537;DHT22;30245;51.966;6.292;2023-12-20T02:38:26;11.60;66.70
44537;DHT22;30245;51.966;6.292;2023-12-20T02:40:51;11.50;66.60
44537;DHT22;30245;51.966;6.292;2023-12-20T02:43:17;11.50;66.80
44537;DHT22;30245;51.966;6.292;2023-12-20T02:45:42;11.50;66.80
44537;DHT22;30245;51.966;6.292;2023-12-20T02:48:08;11.50;66.80
44537;DHT22;30245;51.966;6.292;2023-12-20T02:50:34;11.50;66.70
44537;DHT22;30245;51.966;6.292;2023-12-20T02:52:59;11.50;66.70
44537;DHT22;30245;51.966;6.292;2023-12-20T02:55:25;11.50;66.60
44537;DHT22;30245;51.966;6.292;2023-12-20T02:57:50;11.50;66.70
44537;DHT22;30245;51.966;6.292;2023-12-20T03:00:16;11.60;66.60
44537;DHT22;30245;51.966;6.292;2023-12-20T03:02:41;11.60;66.40
44537;DHT22;30245;51.966;6.292;2023-12-20T03:05:07;11.60;66.40
44537;DHT22;30245;51.966;6.292;2023-12-20T03:07:33;11.60;66.50
44537;DHT22;30245;51.966;6.292;2023-12-20T03:09:58;11.60;66.40
44537;DHT22;30245;51.966;6.292;2023-12-20T03:12:24;11.60;66.40
44537;DHT22;30245;51.966;6.292;2023-12-20T03:14:49;11.60;66.50
44537;DHT22;30245;51.966;6.292;2023-12-20T03:17:15;11.50;66.40
44537;DHT22;30245;51.966;6.292;2023-12-20T03:19:40;11.50;66.60
44537;DHT22;30245;51.966;6.292;2023-12-20T03:22:06;11.50;66.70
44537;DHT22;30245;51.966;6.292;2023-12-20T03:24:31;11.50;66.60
44537;DHT22;30245;51.966;6.292;2023-12-20T03:26:57;11.50;66.80
44537;DHT22;30245;51.966;6.292;2023-12-20T03:29:22;11.50;66.60
44537;DHT22;30245;51.966;6.292;2023-12-20T03:31:48;11.50;66.70
44537;DHT22;30245;51.966;6.292;2023-12-20T03:34:13;11.50;66.80
44537;DHT22;30245;51.966;6.292;2023-12-20T03:36:40;11.50;66.80
44537;DHT22;30245;51.966;6.292;2023-12-20T03:39:05;11.50;66.70
44537;DHT22;30245;51.966;6.292;2023-12-20T03:41:31;11.50;66.70
44537;DHT22;30245;51.966;6.292;2023-12-20T03:43:56;11.50;66.80
44537;DHT22;30245;51.966;6.292;2023-12-20T03:46:22;11.50;66.90
44537;DHT22;30245;51.966;6.292;2023-12-20T03:48:47;11.50;67.00
44537;DHT22;30245;51.966;6.292;2023-12-20T03:51:13;11.50;66.70
44537;DHT22;30245;51.966;6.292;2023-12-20T03:53:38;11.50;66.60
44537;DHT22;30245;51.966;6.292;2023-12-20T03:56:06;11.50;66.60
44537;DHT22;30245;51.966;6.292;2023-12-20T03:58:31;11.60;66.50
44537;DHT22;30245;51.966;6.292;2023-12-20T04:00:57;11.60;66.40
44537;DHT22;30245;51.966;6.292;2023-12-20T04:03:22;11.60;66.30
44537;DHT22;30245;51.966;6.292;2023-12-20T04:05:48;11.60;66.20
44537;DHT22;30245;51.966;6.292;2023-12-20T04:08:13;11.60;66.30
44537;DHT22;30245;51.966;6.292;2023-12-20T04:10:39;11.60;66.30
44537;DHT22;30245;51.966;6.292;2023-12-20T04:13:05;11.60;66.20
44537;DHT22;30245;51.966;6.292;2023-12-20T04:15:30;11.60;66.40
44537;DHT22;30245;51.966;6.292;2023-12-20T04:17:56;11.60;66.30
44537;DHT22;30245;51.966;6.292;2023-12-20T04:20:21;11.70;66.20
44537;DHT22;30245;51.966;6.292;2023-12-20T04:22:47;11.70;66.10
44537;DHT22;30245;51.966;6.292;2023-12-20T04:25:12;11.60;65.90
44537;DHT22;30245;51.966;6.292;2023-12-20T04:27:38;11.60;66.20
44537;DHT22;30245;51.966;6.292;2023-12-20T04:30:04;11.60;66.20
44537;DHT22;30245;51.966;6.292;2023-12-20T04:32:30;11.60;66.20
44537;DHT22;30245;51.966;6.292;2023-12-20T04:34:55;11.60;66.10
44537;DHT22;30245;51.966;6.292;2023-12-20T04:37:21;11.60;66.10
44537;DHT22;30245;51.966;6.292;2023-12-20T04:39:46;11.50;66.20
44537;DHT22;30245;51.966;6.292;2023-12-20T04:42:12;11.60;66.30
44537;DHT22;30245;51.966;6.292;2023-12-20T04:44:37;11.60;66.30
44537;DHT22;30245;51.966;6.292;2023-12-20T04:47:03;11.50;66.40
44537;DHT22;30245;51.966;6.292;2023-12-20T04:49:29;11.60;66.40
44537;DHT22;30245;51.966;6.292;2023-12-20T04:51:54;11.70;66.20
44537;DHT22;30245;51.966;6.292;2023-12-20T04:54:21;11.70;66.00
44537;DHT22;30245;51.966;6.292;2023-12-20T04:56:46;11.70;66.10
44537;DHT22;30245;51.966;6.292;2023-12-20T04:59:12;11.70;66.30
44537;DHT22;30245;51.966;6.292;2023-12-20T05:01:38;11.70;66.20
44537;DHT22;30245;51.966;6.292;2023-12-20T05:04:04;11.70;66.10
44537;DHT22;30245;51.966;6.292;2023-12-20T05:06:30;11.70;66.10
44537;DHT22;30245;51.966;6.292;2023-12-20T05:08:55;11.70;66.00
44537;DHT22;30245;51.966;6.292;2023-12-20T05:11:21;11.70;66.00
44537;DHT22;30245;51.966;6.292;2023-12-20T05:13:46;11.80;66.00
44537;DHT22;30245;51.966;6.292;2023-12-20T05:16:12;11.80;65.80
44537;DHT22;30245;51.966;6.292;2023-12-20T05:18:39;11.80;65.90
44537;DHT22;30245;51.966;6.292;2023-12-20T05:21:05;11.80;65.80
44537;DHT22;30245;51.966;6.292;2023-12-20T05:23:30;11.80;65.70
44537;DHT22;30245;51.966;6.292;2023-12-20T05:25:56;11.90;65.60
44537;DHT22;30245;51.966;6.292;2023-12-20T05:28:21;11.90;65.40
44537;DHT22;30245;51.966;6.292;2023-12-20T05:30:47;11.90;65.40
44537;DHT22;30245;51.966;6.292;2023-12-20T05:33:12;11.90;65.50
44537;DHT22;30245;51.966;6.292;2023-12-20T05:35:38;11.90;65.60
44537;DHT22;30245;51.966;6.292;2023-12-20T05:38:03;11.90;65.60
44537;DHT22;30245;51.966;6.292;2023-12-20T05:40:29;11.80;65.80
44537;DHT22;30245;51.966;6.292;2023-12-20T05:42:54;11.80;66.00
44537;DHT22;30245;51.966;6.292;2023-12-20T05:45:20;11.80;66.10
44537;DHT22;30245;51.966;6.292;2023-12-20T05:47:46;11.80;66.00
44537;DHT22;30245;51.966;6.292;2023-12-20T05:50:11;11.80;66.00
44537;DHT22;30245;51.966;6.292;2023-12-20T05:52:37;11.80;66.10
44537;DHT22;30245;51.966;6.292;2023-12-20T05:55:03;11.80;66.10
44537;DHT22;30245;51.966;6.292;2023-12-20T05:57:28;11.80;66.10
44537;DHT22;30245;51.966;6.292;2023-12-20T05:59:54;11.90;66.10
44537;DHT22;30245;51.966;6.292;2023-12-20T06:02:19;11.90;66.00
44537;DHT22;30245;51.966;6.292;2023-12-20T06:04:45;11.90;66.00
44537;DHT22;30245;51.966;6.292;2023-12-20T06:07:15;12.00;65.90
44537;DHT22;30245;51.966;6.292;2023-12-20T06:09:40;12.00;65.80
44537;DHT22;30245;51.966;6.292;2023-12-20T06:12:07;12.10;65.60
44537;DHT22;30245;51.966;6.292;2023-12-20T06:14:33;12.10;65.50
44537;DHT22;30245;51.966;6.292;2023-12-20T06:16:59;12.10;65.60
44537;DHT22;30245;51.966;6.292;2023-12-20T06:19:26;12.10;66.40
44537;DHT22;30245;51.966;6.292;2023-12-20T06:21:52;12.10;65.60
44537;DHT22;30245;51.966;6.292;2023-12-20T06:24:17;12.20;65.50
44537;DHT22;30245;51.966;6.292;2023-12-20T06:26:43;12.20;65.60
44537;DHT22;30245;51.966;6.292;2023-12-20T06:29:08;12.20;65.70
44537;DHT22;30245;51.966;6.292;2023-12-20T06:31:34;12.20;65.60
44537;DHT22;30245;51.966;6.292;2023-12-20T06:34:00;12.20;65.40
44537;DHT22;30245;51.966;6.292;2023-12-20T06:36:29;12.30;65.30
44537;DHT22;30245;51.966;6.292;2023-12-20T06:38:54;12.30;65.10
44537;DHT22;30245;51.966;6.292;2023-12-20T06:41:20;12.30;65.30
44537;DHT22;30245;51.966;6.292;2023-12-20T06:43:45;12.30;65.40
44537;DHT22;30245;51.966;6.292;2023-12-20T06:46:11;12.30;65.30
44537;DHT22;30245;51.966;6.292;2023-12-20T06:48:38;12.30;65.30
44537;DHT22;30245;51.966;6.292;2023-12-20T06:51:05;12.30;65.40
44537;DHT22;30245;51.966;6.292;2023-12-20T06:53:31;12.30;65.40
44537;DHT22;30245;51.966;6.292;2023-12-20T06:55:56;12.30;65.50
44537;DHT22;30245;51.966;6.292;2023-12-20T06:58:22;12.30;65.60
44537;DHT22;30245;51.966;6.292;2023-12-20T07:00:48;12.30;65.40
44537;DHT22;30245;51.966;6.292;2023-12-20T07:03:14;12.40;65.20
44537;DHT22;30245;51.966;6.292;2023-12-20T07:05:39;12.30;65.30
44537;DHT22;30245;51.966;6.292;2023-12-20T07:08:06;12.40;65.30
44537;DHT22;30245;51.966;6.292;2023-12-20T07:10:32;12.40;65.40
44537;DHT22;30245;51.966;6.292;2023-12-20T07:12:57;12.40;65.20
44537;DHT22;30245;51.966;6.292;2023-12-20T07:15:23;12.40;65.10
44537;DHT22;30245;51.966;6.292;2023-12-20T07:17:48;12.30;64.90
44537;DHT22;30245;51.966;6.292;2023-12-20T07:20:14;12.30;65.00
44537;DHT22;30245;51.966;6.292;2023-12-20T07:22:40;12.30;65.20
44537;DHT22;30245;51.966;6.292;2023-12-20T07:25:06;12.30;65.20
44537;DHT22;30245;51.966;6.292;2023-12-20T07:27:32;12.30;65.30
44537;DHT22;30245;51.966;6.292;2023-12-20T07:29:58;12.30;65.30
44537;DHT22;30245;51.966;6.292;2023-12-20T07:32:23;12.30;65.20
44537;DHT22;30245;51.966;6.292;2023-12-20T07:34:49;12.30;65.30
44537;DHT22;30245;51.966;6.292;2023-12-20T07:37:14;12.30;65.30
44537;DHT22;30245;51.966;6.292;2023-12-20T07:39:40;12.20;65.20
44537;DHT22;30245;51.966;6.292;2023-12-20T07:42:07;12.20;65.30
44537;DHT22;30245;51.966;6.292;2023-12-20T07:44:33;12.30;65.30
44537;DHT22;30245;51.966;6.292;2023-12-20T07:46:59;12.30;65.00
44537;DHT22;30245;51.966;6.292;2023-12-20T07:49:26;12.30;65.00
44537;DHT22;30245;51.966;6.292;2023-12-20T07:51:52;12.40;65.00
44537;DHT22;30245;51.966;6.292;2023-12-20T07:54:17;12.40;65.00
44537;DHT22;30245;51.966;6.292;2023-12-20T07:56:43;12.40;64.80
44537;DHT22;30245;51.966;6.292;2023-12-20T07:59:09;12.40;64.90
44537;DHT22;30245;51.966;6.292;2023-12-20T08:01:34;12.30;64.80
44537;DHT22;30245;51.966;6.292;2023-12-20T08:04:00;12.30;64.90
44537;DHT22;30245;51.966;6.292;2023-12-20T08:06:25;12.40;64.90
44537;DHT22;30245;51.966;6.292;2023-12-20T08:08:51;12.40;64.90
44537;DHT22;30245;51.966;6.292;2023-12-20T08:11:16;12.40;64.80
44537;DHT22;30245;51.966;6.292;2023-12-20T08:13:42;12.40;64.80
44537;DHT22;30245;51.966;6.292;2023-12-20T08:16:08;12.30;64.70
44537;DHT22;30245;51.966;6.292;2023-12-20T08:18:34;12.40;64.70
44537;DHT22;30245;51.966;6.292;2023-12-20T08:21:00;12.30;64.70
44537;DHT22;30245;51.966;6.292;2023-12-20T08:23:26;12.40;64.70
44537;DHT22;30245;51.966;6.292;2023-12-20T08:25:52;12.40;64.70
44537;DHT22;30245;51.966;6.292;2023-12-20T08:28:17;12.40;64.60
44537;DHT22;30245;51.966;6.292;2023-12-20T08:30:43;12.50;64.60
44537;DHT22;30245;51.966;6.292;2023-12-20T08:33:09;12.50;64.60
44537;DHT22;30245;51.966;6.292;2023-12-20T08:35:38;12.50;64.50
44537;DHT22;30245;51.966;6.292;2023-12-20T08:38:04;12.50;64.30
44537;DHT22;30245;51.966;6.292;2023-12-20T08:40:30;12.50;64.40
44537;DHT22;30245;51.966;6.292;2023-12-20T08:42:55;12.50;64.20
44537;DHT22;30245;51.966;6.292;2023-12-20T08:45:21;12.50;64.30
44537;DHT22;30245;51.966;6.292;2023-12-20T08:47:46;12.50;64.50
44537;DHT22;30245;51.966;6.292;2023-12-20T08:50:12;12.50;64.40
44537;DHT22;30245;51.966;6.292;2023-12-20T08:52:38;12.50;64.50
44537;DHT22;30245;51.966;6.292;2023-12-20T08:55:04;12.50;64.60
44537;DHT22;30245;51.966;6.292;2023-12-20T08:57:29;12.50;64.30
44537;DHT22;30245;51.966;6.292;2023-12-20T08:59:57;12.60;64.20
44537;DHT22;30245;51.966;6.292;2023-12-20T09:02:22;12.50;64.20
44537;DHT22;30245;51.966;6.292;2023-12-20T09:04:48;12.40;64.30
44537;DHT22;30245;51.966;6.292;2023-12-20T09:07:26;12.40;64.40
44537;DHT22;30245;51.966;6.292;2023-12-20T09:09:53;12.30;64.50
44537;DHT22;30245;51.966;6.292;2023-12-20T09:12:21;12.30;64.60
44537;DHT22;30245;51.966;6.292;2023-12-20T09:14:48;12.30;64.70
44537;DHT22;30245;51.966;6.292;2023-12-20T09:17:15;12.10;65.00
44537;DHT22;30245;51.966;6.292;2023-12-20T09:19:41;12.10;65.20
44537;DHT22;30245;51.966;6.292;2023-12-20T09:22:07;12.10;65.40
44537;DHT22;30245;51.966;6.292;2023-12-20T09:24:32;12.10;65.50
44537;DHT22;30245;51.966;6.292;2023-12-20T09:26:58;12.10;65.50
44537;DHT22;30245;51.966;6.292;2023-12-20T09:29:24;12.00;65.60
44537;DHT22;30245;51.966;6.292;2023-12-20T09:31:50;12.00;65.80
44537;DHT22;30245;51.966;6.292;2023-12-20T09:34:16;12.00;65.90
44537;DHT22;30245;51.966;6.292;2023-12-20T09:36:42;12.00;65.90
44537;DHT22;30245;51.966;6.292;2023-12-20T09:39:17;12.00;66.00
44537;DHT22;30245;51.966;6.292;2023-12-20T09:42:02;11.90;66.10
44537;DHT22;30245;51.966;6.292;2023-12-20T09:44:28;12.00;66.50
44537;DHT22;30245;51.966;6.292;2023-12-20T09:46:55;12.00;66.10
44537;DHT22;30245;51.966;6.292;2023-12-20T09:49:21;12.00;66.10
44537;DHT22;30245;51.966;6.292;2023-12-20T09:51:47;12.00;66.30
44537;DHT22;30245;51.966;6.292;2023-12-20T09:54:16;11.90;66.60
44537;DHT22;30245;51.966;6.292;2023-12-20T09:56:42;12.00;66.60
44537;DHT22;30245;51.966;6.292;2023-12-20T09:59:07;12.10;66.40
44537;DHT22;30245;51.966;6.292;2023-12-20T10:01:34;12.10;66.20
44537;DHT22;30245;51.966;6.292;2023-12-20T10:04:00;12.10;66.20
44537;DHT22;30245;51.966;6.292;2023-12-20T10:06:28;12.10;66.50
44537;DHT22;30245;51.966;6.292;2023-12-20T10:08:53;12.00;66.60
44537;DHT22;30245;51.966;6.292;2023-12-20T10:11:19;12.00;66.70
44537;DHT22;30245;51.966;6.292;2023-12-20T10:13:47;12.00;67.50
44537;DHT22;30245;51.966;6.292;2023-12-20T10:16:13;12.00;67.00
44537;DHT22;30245;51.966;6.292;2023-12-20T10:18:39;12.00;67.00
44537;DHT22;30245;51.966;6.292;2023-12-20T10:21:06;12.00;67.00
44537;DHT22;30245;51.966;6.292;2023-12-20T10:23:32;12.10;67.00
44537;DHT22;30245;51.966;6.292;2023-12-20T10:26:00;12.10;67.00
44537;DHT22;30245;51.966;6.292;2023-12-20T10:28:26;12.20;66.90
44537;DHT22;30245;51.966;6.292;2023-12-20T10:30:55;12.20;66.60
44537;DHT22;30245;51.966;6.292;2023-12-20T10:33:28;12.20;66.40
44537;DHT22;30245;51.966;6.292;2023-12-20T10:35:59;12.30;66.60
44537;DHT22;30245;51.966;6.292;2023-12-20T10:38:25;12.30;66.60
44537;DHT22;30245;51.966;6.292;2023-12-20T10:40:54;12.30;66.70
44537;DHT22;30245;51.966;6.292;2023-12-20T10:43:22;12.30;66.70
44537;DHT22;30245;51.966;6.292;2023-12-20T10:45:48;12.30;66.80
44537;DHT22;30245;51.966;6.292;2023-12-20T10:48:14;12.40;66.80
44537;DHT22;30245;51.966;6.292;2023-12-20T10:50:41;12.50;66.80
44537;DHT22;30245;51.966;6.292;2023-12-20T10:53:07;12.60;67.00
44537;DHT22;30245;51.966;6.292;2023-12-20T10:55:33;12.60;66.80
44537;DHT22;30245;51.966;6.292;2023-12-20T10:58:07;12.60;66.90
44537;DHT22;30245;51.966;6.292;2023-12-20T11:00:32;12.60;67.00
44537;DHT22;30245;51.966;6.292;2023-12-20T11:03:01;12.60;66.90
44537;DHT22;30245;51.966;6.292;2023-12-20T11:05:50;12.60;66.90
44537;DHT22;30245;51.966;6.292;2023-12-20T11:08:35;12.60;67.10
44537;DHT22;30245;51.966;6.292;2023-12-20T11:11:32;12.60;66.90
44537;DHT22;30245;51.966;6.292;2023-12-20T11:14:07;12.60;66.90
44537;DHT22;30245;51.966;6.292;2023-12-20T11:16:37;12.60;66.90
44537;DHT22;30245;51.966;6.292;2023-12-20T11:19:06;12.70;66.90
44537;DHT22;30245;51.966;6.292;2023-12-20T11:21:32;12.60;66.90
44537;DHT22;30245;51.966;6.292;2023-12-20T11:23:59;12.70;66.80
44537;DHT22;30245;51.966;6.292;2023-12-20T11:26:29;12.80;66.80
44537;DHT22;30245;51.966;6.292;2023-12-20T11:29:30;12.70;66.80
44537;DHT22;30245;51.966;6.292;2023-12-20T11:31:56;12.70;67.00
44537;DHT22;30245;51.966;6.292;2023-12-20T11:34:22;12.70;67.00
44537;DHT22;30245;51.966;6.292;2023-12-20T11:36:57;12.70;66.90
44537;DHT22;30245;51.966;6.292;2023-12-20T11:39:23;12.80;66.90
44537;DHT22;30245;51.966;6.292;2023-12-20T11:41:50;13.00;66.70
44537;DHT22;30245;51.966;6.292;2023-12-20T11:44:17;13.00;66.50
44537;DHT22;30245;51.966;6.292;2023-12-20T11:46:44;13.10;66.70
44537;DHT22;30245;51.966;6.292;2023-12-20T11:49:09;13.20;66.50
44537;DHT22;30245;51.966;6.292;2023-12-20T11:51:35;13.20;66.10
44537;DHT22;30245;51.966;6.292;2023-12-20T11:54:01;13.30;66.30
44537;DHT22;30245;51.966;6.292;2023-12-20T11:56:26;13.30;66.10
44537;DHT22;30245;51.966;6.292;2023-12-20T11:58:52;13.30;66.10
44537;DHT22;30245;51.966;6.292;2023-12-20T12:01:19;13.40;66.10
44537;DHT22;30245;51.966;6.292;2023-12-20T12:03:46;13.50;65.90
44537;DHT22;30245;51.966;6.292;2023-12-20T12:06:12;13.70;65.80
44537;DHT22;30245;51.966;6.292;2023-12-20T12:08:38;13.90;65.30
44537;DHT22;30245;51.966;6.292;2023-12-20T12:11:04;13.90;65.10
44537;DHT22;30245;51.966;6.292;2023-12-20T12:13:30;13.90;64.90
44537;DHT22;30245;51.966;6.292;2023-12-20T12:15:55;13.90;64.70
44537;DHT22;30245;51.966;6.292;2023-12-20T12:18:21;13.90;64.70
44537;DHT22;30245;51.966;6.292;2023-12-20T12:20:47;14.00;64.60
44537;DHT22;30245;51.966;6.292;2023-12-20T12:23:13;14.00;64.60
44537;DHT22;30245;51.966;6.292;2023-12-20T12:25:38;14.00;64.50
44537;DHT22;30245;51.966;6.292;2023-12-20T12:28:05;14.00;64.30
44537;DHT22;30245;51.966;6.292;2023-12-20T12:30:30;14.00;64.30
44537;DHT22;30245;51.966;6.292;2023-12-20T12:32:56;14.00;64.30
44537;DHT22;30245;51.966;6.292;2023-12-20T12:35:23;13.90;64.30
44537;DHT22;30245;51.966;6.292;2023-12-20T12:37:48;13.90;64.20
44537;DHT22;30245;51.966;6.292;2023-12-20T12:40:16;13.90;64.30
44537;DHT22;30245;51.966;6.292;2023-12-20T12:42:43;14.00;64.10
44537;DHT22;30245;51.966;6.292;2023-12-20T12:45:10;14.00;64.00
44537;DHT22;30245;51.966;6.292;2023-12-20T12:47:37;14.00;64.00
44537;DHT22;30245;51.966;6.292;2023-12-20T12:50:03;14.00;63.90
44537;DHT22;30245;51.966;6.292;2023-12-20T12:52:30;13.90;63.80
44537;DHT22;30245;51.966;6.292;2023-12-20T12:54:56;13.90;63.90
44537;DHT22;30245;51.966;6.292;2023-12-20T12:57:22;13.90;64.00
44537;DHT22;30245;51.966;6.292;2023-12-20T12:59:47;13.90;64.60
44537;DHT22;30245;51.966;6.292;2023-12-20T13:02:13;13.90;64.00
44537;DHT22;30245;51.966;6.292;2023-12-20T13:04:42;13.80;64.10
44537;DHT22;30245;51.966;6.292;2023-12-20T13:07:09;13.80;64.30
44537;DHT22;30245;51.966;6.292;2023-12-20T13:09:38;13.70;64.40
44537;DHT22;30245;51.966;6.292;2023-12-20T13:12:04;13.80;64.30
44537;DHT22;30245;51.966;6.292;2023-12-20T13:14:32;13.80;64.30
44537;DHT22;30245;51.966;6.292;2023-12-20T13:16:58;13.80;64.30
44537;DHT22;30245;51.966;6.292;2023-12-20T13:19:24;13.80;64.40
44537;DHT22;30245;51.966;6.292;2023-12-20T13:21:50;13.80;64.50
44537;DHT22;30245;51.966;6.292;2023-12-20T13:24:15;13.70;64.40
44537;DHT22;30245;51.966;6.292;2023-12-20T13:26:41;13.70;64.60
44537;DHT22;30245;51.966;6.292;2023-12-20T13:29:06;13.70;64.60
44537;DHT22;30245;51.966;6.292;2023-12-20T13:31:32;13.70;64.60
44537;DHT22;30245;51.966;6.292;2023-12-20T13:33:58;13.70;64.50
44537;DHT22;30245;51.966;6.292;2023-12-20T13:36:23;13.70;64.60
44537;DHT22;30245;51.966;6.292;2023-12-20T13:38:49;13.70;64.70
44537;DHT22;30245;51.966;6.292;2023-12-20T13:41:15;13.70;64.70
44537;DHT22;30245;51.966;6.292;2023-12-20T13:43:41;13.70;64.90
44537;DHT22;30245;51.966;6.292;2023-12-20T13:46:06;13.70;64.90
44537;DHT22;30245;51.966;6.292;2023-12-20T13:48:32;13.70;64.60
44537;DHT22;30245;51.966;6.292;2023-12-20T13:50:57;13.80;64.60
44537;DHT22;30245;51.966;6.292;2023-12-20T13:53:23;13.80;64.50
44537;DHT22;30245;51.966;6.292;2023-12-20T13:55:48;13.80;64.50
44537;DHT22;30245;51.966;6.292;2023-12-20T13:58:15;13.80;64.60
44537;DHT22;30245;51.966;6.292;2023-12-20T14:00:40;13.80;64.50
44537;DHT22;30245;51.966;6.292;2023-12-20T14:03:06;13.80;64.60
44537;DHT22;30245;51.966;6.292;2023-12-20T14:05:32;13.90;64.50
44537;DHT22;30245;51.966;6.292;2023-12-20T14:07:58;13.80;64.40
44537;DHT22;30245;51.966;6.292;2023-12-20T14:10:24;13.80;64.60
44537;DHT22;30245;51.966;6.292;2023-12-20T14:12:53;13.80;64.70
44537;DHT22;30245;51.966;6.292;2023-12-20T14:15:19;13.70;64.70
44537;DHT22;30245;51.966;6.292;2023-12-20T14:17:44;13.70;64.80
44537;DHT22;30245;51.966;6.292;2023-12-20T14:20:10;13.70;64.90
44537;DHT22;30245;51.966;6.292;2023-12-20T14:22:38;13.70;64.90
44537;DHT22;30245;51.966;6.292;2023-12-20T14:25:04;13.70;64.90
44537;DHT22;30245;51.966;6.292;2023-12-20T14:27:31;13.70;64.90
44537;DHT22;30245;51.966;6.292;2023-12-20T14:29:57;13.70;64.90
44537;DHT22;30245;51.966;6.292;2023-12-20T14:32:23;13.60;65.20
44537;DHT22;30245;51.966;6.292;2023-12-20T14:34:49;13.60;65.30
44537;DHT22;30245;51.966;6.292;2023-12-20T14:37:14;13.60;65.10
44537;DHT22;30245;51.966;6.292;2023-12-20T14:39:41;13.60;65.20
44537;DHT22;30245;51.966;6.292;2023-12-20T14:42:10;13.70;65.20
44537;DHT22;30245;51.966;6.292;2023-12-20T14:44:39;13.60;65.20
44537;DHT22;30245;51.966;6.292;2023-12-20T14:47:06;13.60;65.30
44537;DHT22;30245;51.966;6.292;2023-12-20T14:49:31;13.70;65.30
44537;DHT22;30245;51.966;6.292;2023-12-20T14:51:57;13.70;65.20
44537;DHT22;30245;51.966;6.292;2023-12-20T14:54:23;13.70;65.20
44537;DHT22;30245;51.966;6.292;2023-12-20T14:56:49;13.60;65.20
44537;DHT22;30245;51.966;6.292;2023-12-20T14:59:14;13.60;65.30
44537;DHT22;30245;51.966;6.292;2023-12-20T15:01:40;13.70;65.30
44537;DHT22;30245;51.966;6.292;2023-12-20T15:04:06;13.70;65.20
44537;DHT22;30245;51.966;6.292;2023-12-20T15:06:32;13.80;65.10
44537;DHT22;30245;51.966;6.292;2023-12-20T15:08:59;13.80;65.00
44537;DHT22;30245;51.966;6.292;2023-12-20T15:11:25;13.80;65.00
44537;DHT22;30245;51.966;6.292;2023-12-20T15:13:51;13.70;65.00
44537;DHT22;30245;51.966;6.292;2023-12-20T15:16:22;13.70;65.10
44537;DHT22;30245;51.966;6.292;2023-12-20T15:18:47;13.70;65.20
44537;DHT22;30245;51.966;6.292;2023-12-20T15:21:14;13.80;65.10
44537;DHT22;30245;51.966;6.292;2023-12-20T15:23:39;13.80;65.00